createdAt,value
2017-11-18T00:00:48.536Z,48.10
2017-11-18T00:04:12.028Z,48.00
2017-11-18T00:07:35.553Z,48.20
2017-11-18T00:10:59.062Z,48.20
2017-11-18T00:14:22.563Z,48.20
2017-11-18T00:17:46.023Z,48.20
2017-11-18T00:21:09.524Z,48.40
2017-11-18T00:24:33.004Z,48.40
2017-11-18T00:27:56.465Z,49.00
2017-11-18T00:31:20.124Z,48.30
2017-11-18T00:34:43.563Z,48.30
2017-11-18T00:38:07.068Z,48.30
2017-11-18T00:41:30.550Z,48.40
2017-11-18T00:44:54.048Z,48.40
2017-11-18T00:48:17.545Z,48.20
2017-11-18T00:51:41.787Z,48.60
2017-11-18T00:55:05.242Z,48.50
2017-11-18T00:58:28.733Z,48.40
2017-11-18T01:01:52.233Z,48.30
2017-11-18T01:05:15.852Z,48.40
2017-11-18T01:08:39.483Z,48.10
2017-11-18T01:12:03.740Z,48.20
2017-11-18T01:15:27.209Z,48.20
2017-11-18T01:18:50.651Z,48.30
2017-11-18T01:22:14.112Z,48.30
2017-11-18T01:25:37.699Z,48.30
2017-11-18T01:29:01.152Z,48.50
2017-11-18T01:32:25.417Z,48.50
2017-11-18T01:35:49.033Z,48.40
2017-11-18T01:39:12.484Z,48.40
2017-11-18T01:42:35.955Z,48.50
2017-11-18T01:46:00.194Z,48.50
2017-11-18T01:49:23.680Z,48.50
2017-11-18T01:52:47.147Z,48.40
2017-11-18T01:56:10.587Z,48.40
2017-11-18T01:59:34.096Z,48.50
2017-11-18T02:02:57.938Z,48.50
2017-11-18T02:06:21.383Z,48.30
2017-11-18T02:09:45.635Z,48.40
2017-11-18T02:13:09.104Z,48.40
2017-11-18T02:16:32.569Z,48.50
2017-11-18T02:19:56.035Z,48.50
2017-11-18T02:23:19.623Z,48.60
2017-11-18T02:26:43.156Z,48.60
2017-11-18T02:30:06.759Z,48.50
2017-11-18T02:33:30.237Z,48.60
2017-11-18T02:36:53.703Z,48.50
2017-11-18T02:40:17.169Z,48.50
2017-11-18T02:43:40.615Z,48.50
2017-11-18T02:47:04.081Z,48.40
2017-11-18T02:50:27.536Z,48.60
2017-11-18T02:53:51.773Z,48.50
2017-11-18T02:57:15.215Z,48.50
2017-11-18T03:00:38.698Z,48.60
2017-11-18T03:04:02.193Z,48.50
2017-11-18T03:07:25.694Z,48.40
2017-11-18T03:10:49.148Z,48.50
2017-11-18T03:14:12.712Z,48.50
2017-11-18T03:17:36.172Z,48.40
2017-11-18T03:20:59.646Z,48.60
2017-11-18T03:24:23.126Z,48.60
2017-11-18T03:27:46.610Z,48.60
2017-11-18T03:31:10.081Z,48.60
2017-11-18T03:34:33.696Z,48.70
2017-11-18T03:37:57.919Z,48.70
2017-11-18T03:41:21.402Z,48.70
2017-11-18T03:44:44.870Z,48.70
2017-11-18T03:48:08.334Z,48.60
2017-11-18T03:51:31.919Z,48.60
2017-11-18T03:54:55.405Z,48.80
2017-11-18T03:58:18.881Z,48.70
2017-11-18T04:01:42.432Z,48.70
2017-11-18T04:05:05.907Z,48.70
2017-11-18T04:08:29.427Z,48.70
2017-11-18T04:11:53.699Z,48.70
2017-11-18T04:15:17.183Z,48.70
2017-11-18T04:18:40.675Z,48.60
2017-11-18T04:22:04.153Z,48.60
2017-11-18T04:25:27.757Z,48.60
2017-11-18T04:28:51.211Z,48.60
2017-11-18T04:32:14.692Z,48.60
2017-11-18T04:35:38.339Z,48.40
2017-11-18T04:39:01.813Z,48.40
2017-11-18T04:42:25.284Z,48.50
2017-11-18T04:45:48.795Z,48.40
2017-11-18T04:49:12.320Z,48.40
2017-11-18T04:52:36.570Z,48.40
2017-11-18T04:56:00.040Z,48.30
2017-11-18T04:59:24.316Z,48.50
2017-11-18T05:02:47.832Z,48.50
2017-11-18T05:06:12.082Z,48.60
2017-11-18T05:09:35.710Z,48.50
2017-11-18T05:12:59.951Z,48.20
2017-11-18T05:16:23.431Z,48.20
2017-11-18T05:19:46.929Z,48.10
2017-11-18T05:23:10.450Z,48.10
2017-11-18T05:26:33.903Z,47.80
2017-11-18T05:29:57.549Z,47.90
2017-11-18T05:33:21.816Z,47.70
2017-11-18T05:36:46.016Z,47.70
2017-11-18T05:40:09.478Z,47.80
2017-11-18T05:43:32.958Z,47.70
2017-11-18T05:46:56.456Z,47.50
2017-11-18T05:50:20.712Z,47.10
2017-11-18T05:53:44.270Z,47.10
2017-11-18T05:57:07.746Z,47.00
2017-11-18T06:00:31.205Z,46.80
2017-11-18T06:03:54.685Z,46.40
2017-11-18T06:07:18.176Z,46.60
2017-11-18T06:10:41.657Z,46.10
2017-11-18T06:14:05.135Z,45.80
2017-11-18T06:17:29.414Z,46.00
2017-11-18T06:20:52.918Z,46.00
2017-11-18T06:24:17.163Z,45.00
2017-11-18T06:27:40.724Z,44.90
2017-11-18T06:31:04.487Z,44.70
2017-11-18T06:34:27.951Z,44.80
2017-11-18T06:37:51.444Z,44.80
2017-11-18T06:41:14.896Z,44.90
2017-11-18T06:44:38.372Z,45.10
2017-11-18T06:48:01.844Z,45.20
2017-11-18T06:51:25.382Z,45.30
2017-11-18T06:54:49.618Z,45.40
2017-11-18T06:58:13.131Z,45.40
2017-11-18T07:01:36.592Z,45.60
2017-11-18T07:05:00.081Z,45.90
2017-11-18T07:08:24.332Z,45.90
2017-11-18T07:11:47.887Z,45.50
2017-11-18T07:15:12.105Z,44.90
2017-11-18T07:18:35.588Z,44.90
2017-11-18T07:21:59.064Z,43.80
2017-11-18T07:25:22.541Z,43.70
2017-11-18T07:28:45.999Z,42.90
2017-11-18T07:32:09.471Z,42.00
2017-11-18T07:35:34.481Z,40.60
2017-11-18T07:38:57.926Z,40.60
2017-11-18T07:42:21.404Z,39.80
2017-11-18T07:45:44.952Z,39.00
2017-11-18T07:49:08.426Z,38.50
2017-11-18T07:52:31.898Z,38.10
2017-11-18T07:55:55.421Z,37.60
2017-11-18T07:59:18.861Z,37.20
2017-11-18T08:02:42.336Z,36.90
2017-11-18T08:06:05.900Z,37.00
2017-11-18T08:09:29.457Z,36.30
2017-11-18T08:12:53.745Z,36.10
2017-11-18T08:16:17.979Z,36.00
2017-11-18T08:19:41.583Z,35.90
2017-11-18T08:23:05.175Z,35.80
2017-11-18T08:26:29.391Z,35.80
2017-11-18T08:29:52.878Z,35.80
2017-11-18T08:33:17.035Z,35.80
2017-11-18T08:36:41.678Z,36.50
2017-11-18T08:40:05.152Z,36.40
2017-11-18T08:43:28.748Z,36.30
2017-11-18T08:46:52.257Z,36.30
2017-11-18T08:50:15.776Z,36.20
2017-11-18T08:53:39.252Z,36.20
2017-11-18T08:57:02.709Z,35.90
2017-11-18T09:00:26.344Z,35.90
2017-11-18T09:03:49.812Z,35.80
2017-11-18T09:07:13.316Z,35.80
2017-11-18T09:10:36.965Z,35.70
2017-11-18T09:14:01.275Z,35.60
2017-11-18T09:17:24.822Z,35.60
2017-11-18T09:20:48.254Z,36.10
2017-11-18T09:24:11.765Z,36.20
2017-11-18T09:27:35.261Z,35.90
2017-11-18T09:30:58.729Z,36.10
2017-11-18T09:34:22.347Z,36.20
2017-11-18T09:37:45.806Z,35.80
2017-11-18T09:41:09.271Z,36.00
2017-11-18T09:44:32.728Z,36.00
2017-11-18T09:47:56.234Z,36.00
2017-11-18T09:51:19.692Z,36.10
2017-11-18T09:54:43.189Z,36.00
2017-11-18T09:58:06.700Z,36.00
2017-11-18T10:01:30.179Z,36.50
2017-11-18T10:04:53.661Z,36.70
2017-11-18T10:08:17.096Z,36.20
2017-11-18T10:11:40.588Z,36.30
2017-11-18T10:15:04.064Z,36.70
2017-11-18T10:18:27.549Z,36.30
2017-11-18T10:21:51.027Z,36.60
2017-11-18T10:25:15.308Z,36.60
2017-11-18T10:28:38.814Z,36.50
2017-11-18T10:32:02.404Z,36.70
2017-11-18T10:35:26.016Z,36.50
2017-11-18T10:38:49.525Z,36.30
2017-11-18T10:42:13.010Z,36.40
2017-11-18T10:45:37.825Z,36.40
2017-11-18T10:49:01.334Z,36.10
2017-11-18T10:52:24.874Z,36.30
2017-11-18T10:55:49.126Z,36.00
2017-11-18T10:59:12.598Z,36.00
2017-11-18T11:02:36.070Z,36.10
2017-11-18T11:05:59.549Z,36.10
2017-11-18T11:09:23.032Z,35.90
2017-11-18T11:12:46.485Z,35.90
2017-11-18T11:16:09.975Z,35.90
2017-11-18T11:19:33.470Z,35.80
2017-11-18T11:22:57.717Z,35.50
2017-11-18T11:26:21.204Z,35.50
2017-11-18T11:29:44.668Z,35.30
2017-11-18T11:33:08.247Z,35.30
2017-11-18T11:36:31.739Z,35.50
2017-11-18T11:39:56.012Z,35.50
2017-11-18T11:43:19.643Z,35.40
2017-11-18T11:46:43.150Z,35.60
2017-11-18T11:50:06.632Z,35.60
2017-11-18T11:53:30.112Z,35.40
2017-11-18T11:56:53.623Z,35.40
2017-11-18T12:00:17.275Z,35.60
2017-11-18T12:03:41.552Z,35.60
2017-11-18T12:07:05.047Z,35.60
2017-11-18T12:10:28.559Z,35.70
2017-11-18T12:13:52.032Z,35.60
2017-11-18T12:17:15.534Z,35.60
2017-11-18T12:20:39.016Z,35.60
2017-11-18T12:24:02.492Z,35.90
2017-11-18T12:27:25.975Z,35.70
2017-11-18T12:30:50.223Z,36.10
2017-11-18T12:34:13.678Z,35.80
2017-11-18T12:37:37.151Z,36.00
2017-11-18T12:41:00.684Z,35.80
2017-11-18T12:44:24.151Z,35.90
2017-11-18T12:47:48.531Z,36.50
2017-11-18T12:51:12.008Z,36.50
2017-11-18T12:54:35.493Z,36.40
2017-11-18T12:57:59.778Z,36.50
2017-11-18T13:01:23.275Z,36.50
2017-11-18T13:04:46.771Z,36.40
2017-11-18T13:08:10.293Z,36.50
2017-11-18T13:11:34.544Z,37.60
2017-11-18T13:14:58.182Z,36.90
2017-11-18T13:18:21.786Z,36.80
2017-11-18T13:21:45.360Z,36.70
2017-11-18T13:25:08.857Z,36.90
2017-11-18T13:28:32.359Z,36.60
2017-11-18T13:31:56.758Z,36.30
2017-11-18T13:35:21.044Z,36.10
2017-11-18T13:38:45.286Z,36.00
2017-11-18T13:42:08.788Z,36.00
2017-11-18T13:45:32.299Z,35.80
2017-11-18T13:48:56.597Z,36.00
2017-11-18T13:52:20.061Z,36.00
2017-11-18T13:55:43.604Z,35.70
2017-11-18T13:59:07.853Z,36.60
2017-11-18T14:02:31.594Z,36.00
2017-11-18T14:05:55.167Z,35.90
2017-11-18T14:09:18.668Z,36.10
2017-11-18T14:12:42.218Z,36.10
2017-11-18T14:16:05.822Z,36.00
2017-11-18T14:19:34.901Z,36.00
2017-11-18T14:22:58.493Z,36.20
2017-11-18T14:26:21.989Z,36.30
2017-11-18T14:29:45.479Z,36.30
2017-11-18T14:33:08.948Z,36.30
2017-11-18T14:36:32.553Z,36.30
2017-11-18T14:39:57.007Z,36.50
2017-11-18T14:43:20.556Z,36.50
2017-11-18T14:46:44.040Z,36.60
2017-11-18T14:50:08.564Z,36.60
2017-11-18T14:53:33.538Z,37.10
2017-11-18T14:56:56.988Z,37.00
2017-11-18T15:00:20.503Z,36.90
2017-11-18T15:03:43.982Z,36.80
2017-11-18T15:07:07.458Z,37.00
2017-11-18T15:10:31.108Z,37.10
2017-11-18T15:13:55.400Z,37.50
2017-11-18T15:21:22.947Z,37.20
2017-11-18T15:24:52.774Z,37.30
2017-11-18T15:28:33.248Z,37.30
2017-11-18T15:32:02.464Z,37.50
2017-11-18T15:35:28.488Z,37.40
2017-11-18T15:38:54.709Z,37.60
2017-11-18T15:42:18.959Z,37.70
2017-11-18T15:45:42.422Z,37.70
2017-11-18T15:49:11.587Z,37.60
2017-11-18T15:52:41.551Z,37.90
2017-11-18T15:56:05.821Z,37.80
2017-11-18T15:59:29.289Z,38.00
2017-11-18T16:02:55.317Z,37.70
2017-11-18T16:06:18.797Z,37.70
2017-11-18T16:09:42.342Z,37.90
2017-11-18T16:13:06.583Z,38.00
2017-11-18T16:16:30.077Z,38.00
2017-11-18T16:19:53.793Z,37.80
2017-11-18T16:23:17.535Z,37.90
2017-11-18T16:26:41.802Z,38.20
2017-11-18T16:30:09.771Z,38.20
2017-11-18T16:33:42.779Z,38.20
2017-11-18T16:37:07.268Z,38.20
2017-11-18T16:40:30.750Z,38.20
2017-11-18T16:43:54.251Z,38.30
2017-11-18T16:47:17.747Z,38.30
2017-11-18T16:50:41.248Z,38.30
2017-11-18T16:54:04.731Z,38.40
2017-11-18T16:57:28.212Z,38.40
2017-11-18T17:00:51.725Z,38.60
2017-11-18T17:04:16.017Z,38.50
2017-11-18T17:07:40.231Z,38.40
2017-11-18T17:11:03.743Z,38.40
2017-11-18T17:14:27.265Z,38.50
2017-11-18T17:17:50.721Z,38.70
2017-11-18T17:21:15.069Z,38.60
2017-11-18T17:24:38.538Z,38.60
2017-11-18T17:28:02.264Z,38.70
2017-11-18T17:31:26.520Z,38.90
2017-11-18T17:34:50.028Z,38.90
2017-11-18T17:38:13.669Z,38.80
2017-11-18T17:41:38.658Z,38.20
2017-11-18T17:45:02.127Z,38.20
2017-11-18T17:48:25.610Z,38.10
2017-11-18T17:51:49.090Z,37.80
2017-11-18T17:55:12.581Z,37.60
2017-11-18T17:58:36.026Z,37.50
2017-11-18T18:02:01.024Z,37.20
2017-11-18T18:05:24.528Z,37.10
2017-11-18T18:08:48.157Z,37.10
2017-11-18T18:12:11.641Z,36.70
2017-11-18T18:15:35.164Z,36.70
2017-11-18T18:18:59.453Z,36.30
2017-11-18T18:22:22.917Z,36.20
2017-11-18T18:25:46.393Z,36.80
2017-11-18T18:29:10.657Z,36.00
2017-11-18T18:32:34.135Z,35.90
2017-11-18T18:35:57.604Z,36.00
2017-11-18T18:39:22.610Z,35.40
2017-11-18T18:42:47.212Z,35.30
2017-11-18T18:46:10.718Z,35.30
2017-11-18T18:49:35.394Z,35.10
2017-11-18T18:52:58.953Z,35.10
2017-11-18T18:56:22.697Z,35.10
2017-11-18T18:59:46.212Z,35.10
2017-11-18T19:03:09.726Z,35.40
2017-11-18T19:06:33.235Z,35.20
2017-11-18T19:09:56.697Z,35.20
2017-11-18T19:13:20.209Z,35.40
2017-11-18T19:16:43.720Z,35.60
2017-11-18T19:20:07.217Z,35.90
2017-11-18T19:23:30.712Z,36.10
2017-11-18T19:26:54.276Z,36.30
2017-11-18T19:30:17.759Z,37.10
2017-11-18T19:33:41.247Z,37.10
2017-11-18T19:37:05.545Z,37.40
2017-11-18T19:40:29.191Z,37.30
2017-11-18T19:43:52.736Z,38.10
2017-11-18T19:47:16.179Z,37.70
2017-11-18T19:50:39.692Z,37.50
2017-11-18T19:54:04.641Z,37.40
2017-11-18T19:57:28.101Z,37.50
2017-11-18T20:00:51.612Z,37.50
2017-11-18T20:04:15.084Z,37.50
2017-11-18T20:07:38.652Z,37.70
2017-11-18T20:11:02.258Z,37.70
2017-11-18T20:14:25.805Z,37.90
2017-11-18T20:17:49.498Z,37.70
2017-11-18T20:21:13.044Z,37.70
2017-11-18T20:24:36.568Z,37.80
2017-11-18T20:28:00.076Z,37.80
2017-11-18T20:31:24.312Z,37.60
2017-11-18T20:34:47.796Z,37.60
2017-11-18T20:38:11.330Z,37.80
2017-11-18T20:41:35.608Z,37.60
2017-11-18T20:45:00.128Z,37.60
2017-11-18T20:48:23.600Z,37.60
2017-11-18T20:51:47.127Z,37.60
2017-11-18T20:55:10.687Z,37.90
2017-11-18T20:58:34.314Z,38.00
2017-11-18T21:01:58.823Z,38.00
2017-11-18T21:05:22.297Z,38.00
2017-11-18T21:08:45.894Z,37.80
2017-11-18T21:12:09.567Z,37.80
2017-11-18T21:15:33.093Z,37.90
2017-11-18T21:18:56.583Z,37.80
2017-11-18T21:22:20.178Z,37.70
2017-11-18T21:25:43.697Z,37.60
2017-11-18T21:29:07.155Z,37.90
2017-11-18T21:32:31.401Z,37.60
2017-11-18T21:35:54.904Z,37.50
2017-11-18T21:39:18.405Z,37.60
2017-11-18T21:42:41.885Z,37.60
2017-11-18T21:46:06.148Z,37.60
2017-11-18T21:49:29.665Z,37.60
2017-11-18T21:52:53.889Z,37.90
2017-11-18T21:56:17.488Z,37.80
2017-11-18T21:59:41.967Z,38.40
2017-11-18T22:03:05.433Z,38.40
2017-11-18T22:06:28.969Z,38.60
2017-11-18T22:09:53.212Z,39.10
2017-11-18T22:13:16.700Z,39.00
2017-11-18T22:16:41.705Z,39.90
2017-11-18T22:20:05.232Z,39.90
2017-11-18T22:23:28.716Z,40.30
2017-11-18T22:26:52.304Z,40.70
2017-11-18T22:30:15.809Z,40.90
2017-11-18T22:33:40.056Z,41.60
2017-11-18T22:37:03.640Z,41.60
2017-11-18T22:40:27.125Z,41.80
2017-11-18T22:43:50.615Z,41.90
2017-11-18T22:47:14.269Z,42.30
2017-11-18T22:50:37.721Z,42.50
2017-11-18T22:54:01.206Z,42.60
2017-11-18T22:57:24.680Z,42.70
2017-11-18T23:00:48.157Z,42.80
2017-11-18T23:04:11.730Z,43.10
2017-11-18T23:07:35.225Z,43.30
2017-11-18T23:10:58.714Z,43.50
2017-11-18T23:14:23.029Z,44.00
2017-11-18T23:17:46.516Z,44.00
2017-11-18T23:21:10.012Z,44.00
2017-11-18T23:24:33.656Z,44.20
2017-11-18T23:27:57.109Z,44.30
2017-11-18T23:31:20.778Z,44.40
2017-11-18T23:34:44.279Z,44.50
2017-11-18T23:38:07.851Z,44.60
2017-11-18T23:41:31.315Z,44.50
2017-11-18T23:44:54.779Z,45.40
2017-11-18T23:48:18.285Z,44.70
2017-11-18T23:51:41.794Z,44.80
2017-11-18T23:55:06.008Z,45.00
2017-11-18T23:58:29.489Z,44.90
